Time;durP1;ratioP1;P1;durP2;ratioP2;P2;SDS_P1;SDS_P2;PMS_P1;PMS_P2;Temp;Humidity;BMP_temperature;BMP_pressure;BME280_temperature;BME280_humidity;BME280_pressure;Samples;Min_cycle;Max_cycle;Signal;HPM_P1;HPM_P2
2023/11/04 00:01:28;;;;;;;25.33;20.00;;;2.80;99.90;;;;;;5025336;28;20684;-74
2023/11/04 00:03:55;;;;;;;26.55;20.63;;;2.70;99.90;;;;;;5023188;28;20420;-73
2023/11/04 00:06:23;;;;;;;30.77;21.98;;;2.70;99.90;;;;;;5009964;28;20029;-75
2023/11/04 00:08:52;;;;;;;29.58;21.23;;;2.60;99.90;;;;;;5031365;28;20045;-73
2023/11/04 00:11:18;;;;;;;26.48;21.33;;;2.60;99.90;;;;;;5026546;28;20576;-74
2023/11/04 00:13:45;;;;;;;31.60;22.33;;;2.70;99.90;;;;;;5028332;28;20034;-75
2023/11/04 00:16:13;;;;;;;30.42;22.80;;;2.60;99.90;;;;;;5025579;28;20051;-74
2023/11/04 00:18:39;;;;;;;25.17;22.42;;;2.50;99.90;;;;;;5031317;28;20048;-75
2023/11/04 00:21:10;;;;;;;26.02;22.73;;;2.40;99.90;;;;;;5022678;28;20041;-74
2023/11/04 00:23:37;;;;;;;26.20;23.40;;;2.20;99.90;;;;;;5026013;28;20098;-73
2023/11/04 00:26:05;;;;;;;34.80;25.27;;;2.30;99.90;;;;;;5025330;28;20136;-74
2023/11/04 00:28:32;;;;;;;27.58;21.92;;;2.30;99.90;;;;;;5024942;28;21203;-74
2023/11/04 00:30:59;;;;;;;30.17;19.85;;;2.40;99.90;;;;;;5030768;28;20037;-75
2023/11/04 00:33:25;;;;;;;25.65;19.38;;;2.30;99.90;;;;;;5014420;28;20531;-74
2023/11/04 00:35:54;;;;;;;20.58;18.42;;;2.30;99.90;;;;;;5034223;28;20057;-75
2023/11/04 00:38:21;;;;;;;32.22;19.58;;;2.30;99.90;;;;;;5032287;28;20455;-74
2023/11/04 00:40:47;;;;;;;22.40;18.00;;;2.30;99.90;;;;;;5014088;28;20110;-74
2023/11/04 00:43:14;;;;;;;18.70;17.13;;;2.20;99.90;;;;;;5019658;28;20133;-73
2023/11/04 00:45:41;;;;;;;17.42;16.02;;;2.10;99.90;;;;;;5029462;28;20042;-74
2023/11/04 00:48:08;;;;;;;18.40;16.80;;;2.10;99.90;;;;;;5030481;28;20120;-75
2023/11/04 00:50:36;;;;;;;22.63;18.23;;;2.00;99.90;;;;;;5029535;28;20168;-74
2023/11/04 00:53:04;;;;;;;21.23;19.02;;;2.00;99.90;;;;;;5029835;28;20041;-75
2023/11/04 00:55:31;;;;;;;20.70;18.33;;;1.90;99.90;;;;;;5025200;28;20041;-74
2023/11/04 00:57:57;;;;;;;22.20;19.50;;;1.80;99.90;;;;;;5012180;28;20041;-75
2023/11/04 01:00:26;;;;;;;25.10;20.08;;;1.80;99.90;;;;;;5022570;28;20060;-74
2023/11/04 01:02:55;;;;;;;23.88;20.77;;;1.90;99.90;;;;;;5026345;28;20076;-73
2023/11/04 01:05:23;;;;;;;21.48;19.27;;;1.80;99.90;;;;;;5029042;28;20155;-74
2023/11/04 01:07:50;;;;;;;23.50;18.50;;;1.80;99.90;;;;;;5026190;28;20068;-75
2023/11/04 01:10:17;;;;;;;24.58;19.77;;;1.70;99.90;;;;;;5027892;28;20041;-74
2023/11/04 01:12:44;;;;;;;20.38;18.67;;;1.60;99.90;;;;;;5026986;28;20048;-75
2023/11/04 01:15:11;;;;;;;26.40;19.52;;;1.60;99.90;;;;;;5027047;28;20045;-73
2023/11/04 01:17:40;;;;;;;20.13;18.17;;;1.60;99.90;;;;;;5028046;28;20045;-75
2023/11/04 01:20:08;;;;;;;20.40;18.65;;;1.50;99.90;;;;;;5012303;28;20697;-74
2023/11/04 01:22:35;;;;;;;20.40;18.40;;;1.50;99.90;;;;;;5049085;28;20243;-74
2023/11/04 01:25:02;;;;;;;21.85;19.38;;;1.60;99.90;;;;;;5028493;28;20554;-73
2023/11/04 01:27:29;;;;;;;21.80;19.45;;;1.60;99.90;;;;;;5026134;28;20045;-74
2023/11/04 01:29:56;;;;;;;27.48;20.50;;;1.60;99.90;;;;;;5010080;28;20037;-74
2023/11/04 01:32:23;;;;;;;20.92;18.77;;;1.50;99.90;;;;;;5023382;28;20087;-74
2023/11/04 01:34:51;;;;;;;22.60;19.33;;;1.50;99.90;;;;;;5027883;28;20662;-74
2023/11/04 01:37:19;;;;;;;19.63;17.70;;;1.60;99.90;;;;;;5028054;28;20044;-73
2023/11/04 01:39:46;;;;;;;19.25;17.25;;;1.70;99.90;;;;;;5028184;28;20037;-73
2023/11/04 01:42:13;;;;;;;19.45;17.33;;;1.70;99.90;;;;;;5029174;28;20053;-75
2023/11/04 01:44:40;;;;;;;19.00;17.23;;;1.50;99.90;;;;;;5027814;28;20144;-74
2023/11/04 01:47:07;;;;;;;25.58;18.45;;;1.50;99.90;;;;;;5010501;28;20041;-74
2023/11/04 01:49:34;;;;;;;20.85;17.92;;;1.50;99.90;;;;;;5028182;28;20049;-75
2023/11/04 01:52:02;;;;;;;17.55;15.98;;;1.40;99.90;;;;;;5031533;28;20060;-74
2023/11/04 01:54:30;;;;;;;18.73;16.90;;;1.40;99.90;;;;;;5026742;28;20582;-75
2023/11/04 01:56:58;;;;;;;17.88;16.42;;;1.50;99.90;;;;;;5027393;28;20511;-75
2023/11/04 01:59:26;;;;;;;18.15;16.55;;;1.50;99.90;;;;;;5024288;28;21375;-74
2023/11/04 02:01:54;;;;;;;17.70;16.05;;;1.60;99.90;;;;;;5029259;28;20044;-75
2023/11/04 02:04:20;;;;;;;21.83;16.10;;;1.70;99.90;;;;;;5010869;28;20125;-74
2023/11/04 02:06:48;;;;;;;17.38;15.45;;;1.70;99.90;;;;;;5012630;28;20037;-74
2023/11/04 02:09:15;;;;;;;17.10;15.57;;;1.90;99.90;;;;;;5014754;28;20054;-74
2023/11/04 02:11:42;;;;;;;15.88;14.52;;;1.90;99.90;;;;;;5028235;28;20061;-75
2023/11/04 02:14:09;;;;;;;16.27;14.90;;;2.00;99.90;;;;;;5029131;28;20892;-73
2023/11/04 02:16:36;;;;;;;16.27;14.88;;;2.00;99.90;;;;;;5027691;28;20645;-74
2023/11/04 02:19:04;;;;;;;23.55;14.88;;;2.10;99.90;;;;;;5029113;28;20513;-75
2023/11/04 02:21:32;;;;;;;15.40;13.63;;;2.20;99.90;;;;;;5030606;28;20125;-74
2023/11/04 02:23:59;;;;;;;19.75;13.82;;;2.20;99.90;;;;;;5025413;28;20045;-75
2023/11/04 02:26:26;;;;;;;14.90;13.40;;;2.30;99.90;;;;;;5023741;28;20076;-74
2023/11/04 02:28:53;;;;;;;14.05;12.95;;;2.40;99.90;;;;;;5031766;28;20052;-75
2023/11/04 02:31:20;;;;;;;15.07;12.40;;;2.40;99.90;;;;;;5025806;28;20472;-73
2023/11/04 02:33:47;;;;;;;14.13;12.60;;;2.40;99.90;;;;;;5025503;28;20045;-75
2023/11/04 02:36:14;;;;;;;13.98;12.55;;;2.50;99.90;;;;;;5027329;28;20052;-74
2023/11/04 02:38:41;;;;;;;13.38;11.90;;;2.60;99.90;;;;;;5023519;28;20095;-73
2023/11/04 02:41:08;;;;;;;12.75;11.75;;;2.50;99.90;;;;;;5028165;28;20045;-74
2023/11/04 02:43:35;;;;;;;18.05;12.63;;;2.60;99.90;;;;;;5028744;28;20056;-74
2023/11/04 02:46:02;;;;;;;13.50;12.50;;;2.50;99.90;;;;;;5014776;28;20126;-74
2023/11/04 02:48:29;;;;;;;17.55;13.00;;;2.50;99.90;;;;;;5011512;28;20131;-74
2023/11/04 02:50:56;;;;;;;13.90;12.10;;;2.50;99.90;;;;;;5012775;28;20037;-74
2023/11/04 02:53:23;;;;;;;14.35;11.68;;;2.50;99.90;;;;;;5022620;28;20053;-74
2023/11/04 02:55:50;;;;;;;12.98;11.82;;;2.60;99.90;;;;;;5015266;28;20503;-74
2023/11/04 02:58:17;;;;;;;12.10;10.98;;;2.70;99.90;;;;;;5010528;28;20561;-74
2023/11/04 03:00:43;;;;;;;12.35;11.27;;;2.80;99.90;;;;;;5023924;28;20041;-74
2023/11/04 03:03:10;;;;;;;12.38;11.30;;;2.80;99.90;;;;;;5012829;28;20053;-74
2023/11/04 03:05:37;;;;;;;11.95;10.98;;;2.80;99.90;;;;;;5024188;28;20052;-75
2023/11/04 03:08:04;;;;;;;12.25;11.00;;;2.80;99.90;;;;;;5026037;28;20048;-74
2023/11/04 03:10:32;;;;;;;12.32;10.70;;;2.70;99.90;;;;;;5012393;28;20073;-74
2023/11/04 03:12:59;;;;;;;13.23;11.63;;;2.70;99.90;;;;;;5030212;28;20048;-75
2023/11/04 03:15:26;;;;;;;11.68;10.85;;;2.80;99.90;;;;;;5013559;28;20061;-73
2023/11/04 03:17:53;;;;;;;12.32;10.85;;;2.70;99.90;;;;;;5050879;28;20029;-73
2023/11/04 03:20:20;;;;;;;12.10;10.85;;;2.70;99.90;;;;;;5058338;28;20080;-73
2023/11/04 03:22:46;;;;;;;12.57;11.57;;;2.70;99.90;;;;;;5055291;28;20049;-75
2023/11/04 03:25:15;;;;;;;14.60;10.95;;;2.80;99.90;;;;;;5030817;28;20059;-75
2023/11/04 03:27:42;;;;;;;11.23;10.52;;;2.80;99.90;;;;;;5009851;28;20103;-75
2023/11/04 03:30:10;;;;;;;14.73;11.93;;;2.80;99.90;;;;;;5026563;28;20049;-73
2023/11/04 03:32:37;;;;;;;12.35;11.38;;;2.80;99.90;;;;;;5027321;28;20048;-74
2023/11/04 03:35:04;;;;;;;12.50;11.30;;;2.80;99.90;;;;;;5028276;28;20037;-74
2023/11/04 03:37:34;;;;;;;13.45;12.30;;;2.80;99.90;;;;;;5022657;28;20054;-74
2023/11/04 03:40:00;;;;;;;13.55;12.63;;;2.80;99.90;;;;;;5027227;28;20033;-74
2023/11/04 03:42:27;;;;;;;15.10;12.30;;;2.80;99.90;;;;;;5022078;28;20119;-72
2023/11/04 03:44:54;;;;;;;14.88;12.85;;;2.60;99.90;;;;;;5029671;28;20040;-75
2023/11/04 03:47:21;;;;;;;13.60;12.48;;;2.40;99.90;;;;;;5026002;28;20049;-75
2023/11/04 03:49:48;;;;;;;14.45;13.20;;;2.40;99.90;;;;;;5022056;28;20040;-74
2023/11/04 03:52:15;;;;;;;13.60;12.48;;;2.50;99.90;;;;;;5024755;28;20131;-76
2023/11/04 03:54:42;;;;;;;15.27;13.68;;;2.50;99.90;;;;;;5011078;28;20072;-75
2023/11/04 03:57:09;;;;;;;14.50;13.20;;;2.60;99.90;;;;;;5018927;28;20049;-74
2023/11/04 03:59:35;;;;;;;14.07;12.65;;;2.80;99.90;;;;;;5029236;28;20135;-75
2023/11/04 04:02:02;;;;;;;17.92;12.85;;;3.10;99.90;;;;;;5020860;28;20183;-75
2023/11/04 04:04:29;;;;;;;12.73;11.65;;;3.20;99.90;;;;;;5027924;28;20530;-75
2023/11/04 04:06:56;;;;;;;13.40;11.98;;;3.40;99.90;;;;;;5033116;28;20033;-74
2023/11/04 04:09:23;;;;;;;13.02;11.70;;;3.40;99.90;;;;;;5016248;28;20467;-75
2023/11/04 04:11:51;;;;;;;16.13;10.85;;;3.50;99.90;;;;;;5032359;28;20056;-75
2023/11/04 04:14:20;;;;;;;11.05;9.23;;;3.60;99.90;;;;;;5029357;28;20048;-75
2023/11/04 04:16:47;;;;;;;10.20;8.25;;;3.80;99.90;;;;;;5026564;28;20244;-75
2023/11/04 04:19:13;;;;;;;11.45;9.50;;;4.00;99.90;;;;;;5028195;28;20080;-76
2023/11/04 04:21:41;;;;;;;15.52;9.45;;;4.10;99.90;;;;;;5025966;28;20033;-75
2023/11/04 04:24:08;;;;;;;11.48;8.02;;;4.20;99.90;;;;;;5028034;28;20721;-75
2023/11/04 04:26:35;;;;;;;11.75;8.13;;;4.20;99.90;;;;;;5022938;28;20076;-73
2023/11/04 04:29:02;;;;;;;10.20;8.40;;;4.30;99.90;;;;;;5029396;28;20060;-75
2023/11/04 04:31:29;;;;;;;9.15;7.43;;;4.30;99.90;;;;;;5031500;28;20711;-74
2023/11/04 04:33:55;;;;;;;8.45;7.63;;;4.40;99.90;;;;;;5032623;28;20030;-75
2023/11/04 04:36:22;;;;;;;9.85;7.05;;;4.40;99.90;;;;;;5032207;28;20033;-76
2023/11/04 04:38:53;;;;;;;14.45;8.27;;;4.50;99.90;;;;;;5028970;28;20120;-75
2023/11/04 04:41:19;;;;;;;9.48;7.95;;;4.50;99.90;;;;;;5030881;28;20613;-75
2023/11/04 04:43:46;;;;;;;10.25;7.82;;;4.40;99.90;;;;;;5014573;28;20049;-76
2023/11/04 04:46:13;;;;;;;9.43;8.50;;;4.40;99.90;;;;;;5031363;28;20057;-76
2023/11/04 04:48:40;;;;;;;15.88;8.48;;;4.40;99.90;;;;;;5027410;28;20064;-75
2023/11/04 04:51:07;;;;;;;9.38;8.57;;;4.40;99.90;;;;;;5033947;28;20483;-75
2023/11/04 04:53:36;;;;;;;12.90;8.45;;;4.40;99.90;;;;;;5023566;28;20049;-76
2023/11/04 04:56:03;;;;;;;12.98;8.40;;;4.40;99.90;;;;;;5030244;28;20049;-76
2023/11/04 04:58:30;;;;;;;10.77;7.68;;;4.40;99.90;;;;;;5024979;28;20077;-75
2023/11/04 05:00:56;;;;;;;10.85;7.88;;;4.50;99.90;;;;;;5028011;28;20050;-75
2023/11/04 05:03:23;;;;;;;8.82;8.13;;;4.50;99.90;;;;;;5026381;28;20060;-76
2023/11/04 05:05:50;;;;;;;8.77;8.05;;;4.60;99.90;;;;;;5028130;28;20148;-76
2023/11/04 05:08:17;;;;;;;8.57;7.72;;;4.70;99.90;;;;;;5028026;28;20072;-75
2023/11/04 05:10:44;;;;;;;11.77;7.90;;;4.80;99.90;;;;;;5028171;28;21069;-75
2023/11/04 05:13:11;;;;;;;8.63;7.93;;;4.80;99.90;;;;;;5034666;28;20043;-75
2023/11/04 05:15:37;;;;;;;8.52;7.45;;;4.90;99.90;;;;;;5021989;28;20041;-77
2023/11/04 05:18:04;;;;;;;9.65;8.88;;;4.90;99.90;;;;;;5030211;28;20052;-76
2023/11/04 05:20:31;;;;;;;9.43;8.52;;;5.00;99.90;;;;;;5024759;28;20052;-75
2023/11/04 05:22:58;;;;;;;9.63;8.50;;;5.00;99.90;;;;;;5017951;28;20080;-77
2023/11/04 05:25:25;;;;;;;10.18;9.43;;;5.10;99.90;;;;;;5028261;28;20049;-76
2023/11/04 05:27:52;;;;;;;9.75;8.85;;;5.20;99.90;;;;;;5012273;28;20049;-75
2023/11/04 05:30:19;;;;;;;9.40;8.90;;;5.20;99.90;;;;;;5009497;28;20057;-76
2023/11/04 05:32:45;;;;;;;10.45;9.45;;;5.20;99.90;;;;;;5027100;28;20515;-75
2023/11/04 05:35:12;;;;;;;10.60;9.73;;;5.20;99.90;;;;;;5023395;28;20037;-76
2023/11/04 05:37:39;;;;;;;9.70;9.10;;;5.30;99.90;;;;;;5029110;28;20041;-76
2023/11/04 05:40:07;;;;;;;9.80;9.05;;;5.40;99.90;;;;;;5012944;28;20040;-75
2023/11/04 05:42:34;;;;;;;9.40;8.65;;;5.40;99.90;;;;;;5022993;28;20079;-76
2023/11/04 05:45:02;;;;;;;9.68;9.07;;;5.40;99.90;;;;;;5027504;28;20071;-76
2023/11/04 05:47:29;;;;;;;9.93;9.23;;;5.50;99.90;;;;;;5025849;28;20456;-75
2023/11/04 05:49:56;;;;;;;10.88;10.07;;;5.50;99.90;;;;;;5025168;28;20048;-76
2023/11/04 05:52:22;;;;;;;11.70;10.90;;;5.50;99.90;;;;;;5024514;28;20034;-75
2023/11/04 05:54:49;;;;;;;11.13;10.13;;;5.50;99.90;;;;;;5012242;28;20111;-75
2023/11/04 05:57:16;;;;;;;11.40;10.50;;;5.60;99.90;;;;;;5028357;28;20039;-74
2023/11/04 05:59:44;;;;;;;10.80;10.20;;;5.60;99.90;;;;;;5022797;28;21664;-74
2023/11/04 06:02:15;;;;;;;10.27;9.75;;;5.70;99.90;;;;;;5031063;28;20227;-75
2023/11/04 06:04:42;;;;;;;11.73;11.02;;;5.80;99.90;;;;;;5053271;28;20124;-76
2023/11/04 06:07:09;;;;;;;12.00;11.30;;;6.00;99.90;;;;;;5028554;28;20044;-76
2023/11/04 06:09:37;;;;;;;12.23;11.50;;;6.10;99.90;;;;;;5010776;28;20571;-75
2023/11/04 06:12:07;;;;;;;13.20;12.40;;;6.20;99.90;;;;;;5019489;28;20223;-74
2023/11/04 06:14:35;;;;;;;13.88;12.98;;;6.20;99.90;;;;;;5046747;28;20047;-75
2023/11/04 06:17:03;;;;;;;13.80;13.10;;;6.30;99.90;;;;;;5031780;28;20138;-75
2023/11/04 06:19:30;;;;;;;13.95;13.15;;;6.30;99.90;;;;;;5020939;28;20513;-74
2023/11/04 06:21:57;;;;;;;13.98;13.27;;;6.30;99.90;;;;;;5012917;28;20781;-76
2023/11/04 06:24:24;;;;;;;15.00;13.90;;;6.30;99.90;;;;;;5029825;28;20064;-76
2023/11/04 06:26:51;;;;;;;15.23;13.85;;;6.40;99.90;;;;;;5024727;28;20048;-75
2023/11/04 06:29:17;;;;;;;14.88;13.95;;;6.40;99.90;;;;;;5026234;28;20041;-76
2023/11/04 06:31:44;;;;;;;13.40;12.60;;;6.40;99.90;;;;;;5024737;28;20057;-75
2023/11/04 06:34:11;;;;;;;13.75;12.85;;;6.40;99.90;;;;;;5025124;28;20040;-76
2023/11/04 06:36:38;;;;;;;13.25;12.55;;;6.40;99.90;;;;;;5038398;28;20613;-75
2023/11/04 06:39:06;;;;;;;14.38;13.60;;;6.30;99.90;;;;;;5024001;28;20927;-76
2023/11/04 06:41:33;;;;;;;14.80;13.70;;;6.30;99.90;;;;;;5021240;28;20050;-76
2023/11/04 06:44:00;;;;;;;16.20;15.15;;;6.20;99.90;;;;;;5028318;28;20620;-76
2023/11/04 06:46:27;;;;;;;15.38;14.48;;;6.20;99.90;;;;;;5010577;28;20511;-74
2023/11/04 06:48:54;;;;;;;15.40;14.25;;;6.20;99.90;;;;;;5026386;28;20051;-76
2023/11/04 06:51:21;;;;;;;15.90;15.05;;;6.20;99.90;;;;;;5027628;28;20052;-76
2023/11/04 06:53:49;;;;;;;16.55;15.40;;;6.20;99.90;;;;;;5010356;28;20115;-76
2023/11/04 06:56:17;;;;;;;15.38;14.38;;;6.30;99.90;;;;;;5030054;28;20041;-73
2023/11/04 06:58:43;;;;;;;16.13;15.00;;;6.30;99.90;;;;;;5023133;28;20140;-75
2023/11/04 07:01:14;;;;;;;15.90;14.73;;;6.40;99.90;;;;;;5023719;28;20194;-73
2023/11/04 07:03:42;;;;;;;16.13;15.05;;;6.50;99.90;;;;;;5021789;28;20052;-74
2023/11/04 07:06:13;;;;;;;15.43;14.63;;;6.50;99.90;;;;;;5023980;28;20052;-75
2023/11/04 07:08:40;;;;;;;15.60;14.75;;;6.60;99.90;;;;;;5024080;28;20060;-74
2023/11/04 07:11:07;;;;;;;16.02;14.95;;;6.60;99.90;;;;;;5004513;28;20041;-75
2023/11/04 07:13:34;;;;;;;16.33;15.27;;;6.70;99.90;;;;;;5022888;28;20110;-74
2023/11/04 07:16:01;;;;;;;16.90;15.80;;;6.70;99.90;;;;;;5027662;28;20051;-75
2023/11/04 07:18:28;;;;;;;16.80;15.80;;;6.70;99.90;;;;;;5021438;28;20534;-75
2023/11/04 07:20:57;;;;;;;16.65;15.75;;;6.80;99.90;;;;;;5022419;28;20124;-74
2023/11/04 07:23:24;;;;;;;16.23;15.23;;;6.80;99.90;;;;;;5026816;28;20042;-75
2023/11/04 07:25:51;;;;;;;17.20;15.95;;;6.80;99.90;;;;;;5025820;28;20048;-75
2023/11/04 07:28:17;;;;;;;16.45;15.45;;;6.80;99.90;;;;;;5012275;28;20053;-75
2023/11/04 07:30:44;;;;;;;17.77;16.67;;;6.70;99.90;;;;;;5011110;28;20115;-75
2023/11/04 07:33:11;;;;;;;16.67;15.63;;;6.80;99.90;;;;;;5024064;28;20049;-74
2023/11/04 07:35:38;;;;;;;16.90;15.85;;;6.70;99.90;;;;;;5029738;28;20041;-73
2023/11/04 07:38:05;;;;;;;16.42;15.32;;;6.70;99.90;;;;;;5055194;28;20053;-73
2023/11/04 07:40:32;;;;;;;17.45;16.25;;;6.70;99.90;;;;;;5048765;28;20186;-74
2023/11/04 07:42:58;;;;;;;15.73;14.85;;;6.80;99.90;;;;;;5043426;28;20864;-75
2023/11/04 07:45:25;;;;;;;15.52;14.63;;;6.80;99.90;;;;;;5026212;28;20046;-74
2023/11/04 07:47:55;;;;;;;15.30;14.40;;;6.80;99.90;;;;;;5012290;28;20115;-74
2023/11/04 07:50:22;;;;;;;17.23;15.90;;;6.80;99.90;;;;;;5031750;28;20160;-74
2023/11/04 07:52:49;;;;;;;16.17;15.10;;;6.90;99.90;;;;;;5020614;28;20576;-74
2023/11/04 07:55:24;;;;;;;17.10;15.77;;;7.00;99.90;;;;;;5027460;28;20589;-74
2023/11/04 07:57:52;;;;;;;17.63;16.10;;;7.00;99.90;;;;;;5021450;28;20855;-73
2023/11/04 08:00:19;;;;;;;17.33;16.02;;;7.00;99.90;;;;;;5018729;28;20091;-75
2023/11/04 08:02:47;;;;;;;17.17;15.98;;;7.00;99.90;;;;;;5024542;28;20052;-73
2023/11/04 08:05:14;;;;;;;16.65;15.57;;;7.20;99.90;;;;;;5037925;28;20419;-72
2023/11/04 08:07:41;;;;;;;16.27;15.23;;;7.10;99.90;;;;;;5017087;28;20037;-74
2023/11/04 08:10:08;;;;;;;17.17;15.98;;;7.10;99.90;;;;;;5022036;28;20044;-73
2023/11/04 08:12:36;;;;;;;17.25;15.95;;;7.20;99.90;;;;;;5011930;28;20131;-74
2023/11/04 08:15:06;;;;;;;16.73;15.75;;;7.20;99.90;;;;;;5028411;28;20076;-75
2023/11/04 08:17:33;;;;;;;17.48;16.33;;;7.20;99.90;;;;;;5021837;28;20060;-74
2023/11/04 08:20:03;;;;;;;18.05;16.48;;;7.20;99.90;;;;;;5020113;28;20053;-74
2023/11/04 08:22:30;;;;;;;17.63;16.42;;;7.20;99.90;;;;;;5024924;28;20140;-74
2023/11/04 08:24:57;;;;;;;20.48;19.02;;;7.30;99.90;;;;;;5019427;28;20045;-75
2023/11/04 08:27:24;;;;;;;20.58;18.95;;;7.30;99.90;;;;;;5020601;28;20050;-74
2023/11/04 08:29:52;;;;;;;18.27;16.88;;;7.30;99.90;;;;;;5018720;28;20076;-74
2023/11/04 08:32:19;;;;;;;20.88;19.27;;;7.30;99.90;;;;;;5023547;28;20155;-75
2023/11/04 08:34:45;;;;;;;19.42;17.80;;;7.30;99.90;;;;;;5019193;28;20534;-74
2023/11/04 08:37:12;;;;;;;18.33;17.00;;;7.40;99.90;;;;;;5025504;28;20107;-73
2023/11/04 08:39:40;;;;;;;18.10;16.73;;;7.40;99.90;;;;;;5025942;28;20520;-74
2023/11/04 08:42:07;;;;;;;20.13;18.60;;;7.40;99.90;;;;;;5028618;28;20198;-73
2023/11/04 08:44:33;;;;;;;19.48;18.17;;;7.40;99.90;;;;;;5029123;28;20135;-75
2023/11/04 08:47:00;;;;;;;17.80;16.60;;;7.50;99.90;;;;;;5022127;28;20033;-73
2023/11/04 08:49:27;;;;;;;20.05;18.30;;;7.60;99.90;;;;;;5028925;28;20057;-74
2023/11/04 08:51:54;;;;;;;18.60;17.50;;;7.60;99.90;;;;;;5026200;28;20040;-74
2023/11/04 08:54:21;;;;;;;18.63;17.52;;;7.70;99.90;;;;;;5019896;28;20126;-72
2023/11/04 08:56:49;;;;;;;19.52;18.33;;;7.80;99.90;;;;;;5010267;28;20052;-73
2023/11/04 08:59:15;;;;;;;21.00;19.77;;;7.80;99.90;;;;;;5015645;28;20049;-75
2023/11/04 09:01:42;;;;;;;20.92;19.67;;;7.80;99.90;;;;;;5010843;28;20130;-74
2023/11/04 09:04:11;;;;;;;19.35;18.30;;;7.80;99.90;;;;;;5023621;28;20066;-73
2023/11/04 09:06:49;;;;;;;20.95;19.65;;;7.80;99.90;;;;;;5025362;28;20041;-73
2023/11/04 09:09:19;;;;;;;21.92;20.50;;;7.90;99.90;;;;;;5032764;28;20033;-73
2023/11/04 09:11:45;;;;;;;20.67;19.40;;;7.90;99.90;;;;;;5022172;28;20045;-73
2023/11/04 09:14:12;;;;;;;21.27;19.65;;;8.00;99.90;;;;;;5022718;28;20049;-74
2023/11/04 09:16:39;;;;;;;22.70;21.40;;;8.00;99.90;;;;;;5010852;28;20048;-74
2023/11/04 09:19:06;;;;;;;22.27;20.98;;;8.30;99.90;;;;;;5021661;28;20068;-74
2023/11/04 09:21:33;;;;;;;21.25;20.17;;;8.60;99.90;;;;;;5026990;28;20735;-74
2023/11/04 09:24:00;;;;;;;24.42;23.08;;;8.70;99.90;;;;;;5022561;28;21936;-73
2023/11/04 09:26:26;;;;;;;23.00;21.48;;;8.70;99.90;;;;;;5022759;28;20037;-74
2023/11/04 09:28:53;;;;;;;22.25;21.05;;;8.80;99.90;;;;;;5022797;28;20048;-74
2023/11/04 09:31:20;;;;;;;22.52;21.15;;;8.70;99.90;;;;;;5027342;28;20036;-74
2023/11/04 09:33:47;;;;;;;22.55;21.13;;;8.70;99.90;;;;;;5019748;28;20049;-73
2023/11/04 09:36:14;;;;;;;24.60;22.85;;;8.70;99.90;;;;;;5029983;28;20049;-72
2023/11/04 09:38:42;;;;;;;22.98;21.77;;;8.80;99.90;;;;;;5023406;28;20050;-75
2023/11/04 09:41:10;;;;;;;23.05;21.67;;;9.00;99.90;;;;;;5022714;28;20048;-73
2023/11/04 09:43:36;;;;;;;21.45;20.35;;;8.90;99.90;;;;;;5028774;28;20045;-74
2023/11/04 09:46:05;;;;;;;21.90;20.70;;;9.10;99.90;;;;;;5009113;28;20119;-73
2023/11/04 09:48:32;;;;;;;22.73;21.63;;;9.20;99.90;;;;;;5029929;28;20148;-73
2023/11/04 09:51:00;;;;;;;28.45;26.55;;;9.20;99.90;;;;;;5009341;28;20036;-74
2023/11/04 09:53:30;;;;;;;23.02;21.45;;;9.00;99.90;;;;;;5029780;28;20099;-73
2023/11/04 09:55:57;;;;;;;31.83;28.70;;;8.90;99.90;;;;;;5024780;28;20672;-74
2023/11/04 09:58:25;;;;;;;30.17;27.15;;;9.00;99.90;;;;;;5028085;28;20688;-74
2023/11/04 10:00:52;;;;;;;22.52;21.23;;;9.00;99.90;;;;;;5024085;28;20072;-73
2023/11/04 10:11:10;;;;;;;22.10;20.80;;;9.40;99.90;;;;;;5007586;28;20050;-74
2023/11/04 10:17:37;;;;;;;21.38;20.13;;;9.00;99.90;;;;;;4993789;28;20105;-72
2023/11/04 10:20:11;;;;;;;23.00;21.77;;;8.80;99.90;;;;;;5040070;28;20049;-71
2023/11/04 10:22:38;;;;;;;22.05;20.65;;;8.70;99.90;;;;;;5023938;28;20041;-73
2023/11/04 10:25:09;;;;;;;21.83;20.50;;;8.60;99.90;;;;;;5009853;28;20048;-72
2023/11/04 10:27:36;;;;;;;22.63;21.23;;;8.50;99.90;;;;;;5026396;28;20049;-72
2023/11/04 10:30:03;;;;;;;21.55;20.27;;;8.60;99.90;;;;;;5018386;28;20623;-72
2023/11/04 10:32:36;;;;;;;22.02;20.73;;;8.60;99.90;;;;;;5024322;28;20124;-72
2023/11/04 10:35:04;;;;;;;19.98;18.98;;;8.50;99.90;;;;;;5028034;28;20045;-71
2023/11/04 10:37:36;;;;;;;19.60;18.40;;;8.50;99.90;;;;;;5025509;28;20050;-72
2023/11/04 10:40:07;;;;;;;20.40;19.40;;;8.50;99.90;;;;;;5025582;28;20048;-72
2023/11/04 10:42:44;;;;;;;19.83;18.63;;;8.50;99.90;;;;;;5028198;28;20041;-72
2023/11/04 10:45:27;;;;;;;21.65;20.10;;;8.50;99.90;;;;;;5025370;28;20632;-72
2023/11/04 10:48:14;;;;;;;20.85;19.75;;;8.60;99.90;;;;;;5024540;28;20067;-72
2023/11/04 10:50:45;;;;;;;21.48;20.38;;;8.60;99.90;;;;;;5005588;28;20072;-73
2023/11/04 10:53:41;;;;;;;20.88;19.73;;;8.50;99.90;;;;;;5024841;28;20071;-71
2023/11/04 10:56:18;;;;;;;19.92;18.83;;;8.40;99.90;;;;;;5011519;28;20057;-73
2023/11/04 10:59:07;;;;;;;19.17;18.08;;;8.40;99.90;;;;;;5027904;28;20038;-72
2023/11/04 11:01:38;;;;;;;18.85;17.70;;;8.40;99.90;;;;;;5022512;28;20041;-73
2023/11/04 11:04:06;;;;;;;18.65;17.50;;;8.30;99.90;;;;;;5024195;28;20029;-72
2023/11/04 11:06:34;;;;;;;20.02;18.83;;;8.20;99.90;;;;;;5025037;28;20049;-73
2023/11/04 11:09:05;;;;;;;18.48;17.35;;;8.30;99.90;;;;;;5019828;28;20047;-73
2023/11/04 11:11:44;;;;;;;18.58;17.48;;;8.30;99.90;;;;;;5025506;28;20048;-73
2023/11/04 11:14:15;;;;;;;19.00;17.98;;;8.30;99.90;;;;;;5023611;28;20440;-73
2023/11/04 11:16:42;;;;;;;21.48;19.98;;;8.40;99.90;;;;;;5022371;28;20094;-73
2023/11/04 11:19:10;;;;;;;20.35;18.95;;;8.40;99.90;;;;;;5012188;28;20056;-73
2023/11/04 11:21:50;;;;;;;21.27;19.67;;;8.30;99.90;;;;;;5020425;28;20061;-73
2023/11/04 11:24:20;;;;;;;19.60;18.30;;;8.40;99.90;;;;;;5027441;28;20814;-73
2023/11/04 11:26:51;;;;;;;17.73;16.83;;;8.40;99.90;;;;;;5028934;28;20037;-72
2023/11/04 11:29:19;;;;;;;18.48;17.42;;;8.40;99.90;;;;;;5025347;28;20040;-74
2023/11/04 11:31:47;;;;;;;21.48;18.77;;;8.40;99.90;;;;;;5027237;28;20090;-71
2023/11/04 11:34:14;;;;;;;18.85;17.75;;;8.40;99.90;;;;;;5011441;28;20959;-73
2023/11/04 11:36:46;;;;;;;20.50;19.25;;;8.40;99.90;;;;;;5020543;28;20303;-72
2023/11/04 11:39:14;;;;;;;18.95;17.85;;;8.60;99.90;;;;;;5023674;28;20051;-74
2023/11/04 11:41:44;;;;;;;18.45;17.45;;;8.60;99.90;;;;;;5002645;28;20049;-73
2023/11/04 11:44:14;;;;;;;18.52;17.48;;;8.60;99.90;;;;;;5024130;28;20136;-73
2023/11/04 11:46:44;;;;;;;20.25;18.80;;;8.50;99.90;;;;;;5023980;28;20060;-72
2023/11/04 11:49:12;;;;;;;19.75;18.35;;;8.60;99.90;;;;;;5043409;28;20072;-70
2023/11/04 11:51:40;;;;;;;20.25;18.75;;;8.70;99.90;;;;;;5055730;28;20083;-71
2023/11/04 11:54:06;;;;;;;20.65;19.33;;;8.80;99.90;;;;;;5041732;28;20041;-71
2023/11/04 11:56:37;;;;;;;19.75;18.55;;;8.80;99.90;;;;;;5031650;28;20076;-73
2023/11/04 11:59:09;;;;;;;21.30;19.90;;;8.80;99.90;;;;;;5023112;28;20041;-72
2023/11/04 12:01:36;;;;;;;22.45;20.90;;;8.80;99.90;;;;;;5012435;28;20052;-73
2023/11/04 12:04:05;;;;;;;21.83;20.50;;;8.80;99.90;;;;;;5015040;28;20663;-73
2023/11/04 12:06:36;;;;;;;19.63;18.42;;;8.90;99.90;;;;;;5021383;28;20129;-72
2023/11/04 12:09:05;;;;;;;19.65;18.65;;;8.90;99.90;;;;;;5029091;28;20091;-73
2023/11/04 12:11:32;;;;;;;18.45;17.45;;;8.80;99.90;;;;;;5023877;28;20132;-72
2023/11/04 12:13:59;;;;;;;19.50;18.20;;;8.80;99.90;;;;;;5029001;28;20041;-74
2023/11/04 12:16:29;;;;;;;19.83;18.48;;;8.80;99.90;;;;;;5045018;28;20134;-75
2023/11/04 12:18:56;;;;;;;20.17;18.65;;;8.80;99.90;;;;;;5017157;28;20041;-73
2023/11/04 12:21:23;;;;;;;18.77;17.77;;;8.80;99.90;;;;;;5028368;28;20053;-72
2023/11/04 12:23:50;;;;;;;18.38;17.20;;;8.80;99.90;;;;;;5033984;28;20052;-72
2023/11/04 12:26:17;;;;;;;19.77;18.67;;;8.80;99.90;;;;;;5012487;28;20121;-73
2023/11/04 12:28:56;;;;;;;19.48;18.17;;;8.80;99.90;;;;;;5029682;28;20517;-76
2023/11/04 12:31:29;;;;;;;21.33;19.75;;;8.80;99.90;;;;;;5034118;28;20116;-75
2023/11/04 12:33:58;;;;;;;20.80;19.40;;;8.80;99.90;;;;;;5035214;28;20045;-74
2023/11/04 12:36:25;;;;;;;19.88;18.55;;;8.80;99.90;;;;;;5030666;28;20563;-75
2023/11/04 12:38:52;;;;;;;20.63;19.35;;;8.70;99.90;;;;;;5020864;28;20056;-74
2023/11/04 12:41:19;;;;;;;21.00;19.60;;;8.80;99.90;;;;;;5029256;28;20045;-74
2023/11/04 12:43:49;;;;;;;22.05;20.55;;;8.70;99.90;;;;;;5017718;28;20872;-75
2023/11/04 12:46:19;;;;;;;22.30;20.27;;;8.90;99.90;;;;;;5019409;28;20045;-74
2023/11/04 12:48:46;;;;;;;22.70;20.80;;;8.90;99.90;;;;;;5032358;28;20069;-75
2023/11/04 12:51:13;;;;;;;21.58;20.02;;;8.80;99.90;;;;;;5028811;28;20124;-75
2023/11/04 12:53:40;;;;;;;21.27;19.52;;;8.90;99.90;;;;;;5033469;28;20041;-75